Time;durP1;ratioP1;P1;durP2;ratioP2;P2;SDS_P1;SDS_P2;PMS_P1;PMS_P2;Temp;Humidity;BMP_temperature;BMP_pressure;BME280_temperature;BME280_humidity;BME280_pressure;Samples;Min_cycle;Max_cycle;Signal;HPM_P1;HPM_P2
2023/03/01 00:03:36;;;;;;;24.93;21.77;;;-2.80;99.90;;;;;;2614811;54;20150;-74
2023/03/01 00:09:24;;;;;;;26.00;23.23;;;-2.90;99.90;;;;;;2615332;39;20771;-74
2023/03/01 00:19:18;;;;;;;26.50;21.97;;;-3.00;99.90;;;;;;2615227;31;20861;-74
2023/03/01 00:25:06;;;;;;;24.00;21.70;;;-3.00;99.90;;;;;;2614600;54;20392;-73
2023/03/01 00:30:54;;;;;;;25.53;22.83;;;-3.10;99.90;;;;;;2614568;54;20158;-74
2023/03/01 00:36:42;;;;;;;25.07;22.63;;;-3.10;99.90;;;;;;2614757;54;20645;-75
2023/03/01 00:42:30;;;;;;;21.97;19.80;;;-3.20;99.90;;;;;;2614655;54;20146;-75
2023/03/01 00:48:17;;;;;;;24.80;22.20;;;-3.30;99.90;;;;;;2614960;39;20516;-74
2023/03/01 00:54:05;;;;;;;24.47;21.77;;;-3.30;99.90;;;;;;2614289;54;20130;-75
2023/03/01 00:59:53;;;;;;;24.50;21.67;;;-3.30;99.90;;;;;;2614661;39;20464;-74
2023/03/01 01:05:40;;;;;;;24.23;21.10;;;-3.40;99.90;;;;;;2614240;54;20146;-75
2023/03/01 01:11:29;;;;;;;21.97;19.80;;;-3.60;99.90;;;;;;2614602;54;20125;-74
2023/03/01 01:14:48;;;;;;;26.10;21.27;;;-3.60;99.90;;;;;;2613910;54;20502;-75
2023/03/01 01:17:13;;;;;;;24.53;22.03;;;-3.70;99.90;;;;;;2614454;54;20403;-74
2023/03/01 01:23:01;;;;;;;24.30;21.67;;;-3.70;99.90;;;;;;2614581;54;20154;-74
2023/03/01 01:28:50;;;;;;;25.93;22.63;;;-3.70;99.90;;;;;;2614973;39;20554;-74
2023/03/01 01:34:38;;;;;;;23.97;21.47;;;-3.80;99.90;;;;;;2615132;54;20386;-73
2023/03/01 01:40:26;;;;;;;24.80;22.40;;;-3.90;99.90;;;;;;2615472;54;20914;-73
2023/03/01 01:46:32;;;;;;;24.70;22.00;;;-3.90;99.90;;;;;;2615042;46;20255;-74
2023/03/01 01:52:25;;;;;;;27.83;23.63;;;-4.00;99.90;;;;;;2615539;39;20786;-74
2023/03/01 01:58:17;;;;;;;28.40;23.53;;;-3.90;99.90;;;;;;2615229;54;20454;-73
2023/03/01 02:04:06;;;;;;;26.13;21.23;;;-3.90;99.90;;;;;;2614925;54;20925;-73
2023/03/01 02:09:54;;;;;;;23.40;21.00;;;-3.90;99.90;;;;;;2615861;39;20799;-73
2023/03/01 02:19:35;;;;;;;22.33;19.40;;;-3.90;99.90;;;;;;2615415;39;20784;-74
2023/03/01 02:25:31;;;;;;;24.63;21.90;;;-4.00;99.90;;;;;;2615082;54;20391;-74
2023/03/01 02:37:27;;;;;;;22.80;20.50;;;-3.90;99.90;;;;;;2614920;54;20479;-74
2023/03/01 02:43:17;;;;;;;19.73;17.80;;;-3.60;99.90;;;;;;2615222;54;20375;-74
2023/03/01 02:55:43;;;;;;;19.37;17.47;;;-3.50;99.90;;;;;;2614714;54;20383;-74
2023/03/01 03:01:37;;;;;;;20.20;18.40;;;-3.50;99.90;;;;;;2615131;54;20244;-73
2023/03/01 03:07:24;;;;;;;20.80;18.80;;;-3.70;99.90;;;;;;2614697;54;20382;-73
2023/03/01 03:13:14;;;;;;;22.77;20.33;;;-4.00;99.90;;;;;;2615044;54;20652;-73
2023/03/01 03:19:05;;;;;;;21.90;19.17;;;-4.00;99.90;;;;;;2615210;54;20878;-74
2023/03/01 03:24:53;;;;;;;21.80;19.60;;;-4.10;99.90;;;;;;2615086;54;20354;-73
2023/03/01 03:30:41;;;;;;;22.30;20.10;;;-4.20;99.90;;;;;;2614739;54;20146;-74
2023/03/01 03:36:29;;;;;;;19.77;17.87;;;-4.20;99.90;;;;;;2615005;54;20374;-74
2023/03/01 03:42:17;;;;;;;22.37;19.83;;;-4.10;99.90;;;;;;2614852;54;20624;-70
2023/03/01 03:48:07;;;;;;;19.00;16.90;;;-4.30;99.90;;;;;;2614813;54;20138;-72
2023/03/01 03:51:10;;;;;;;23.27;19.93;;;-4.30;99.90;;;;;;2614837;54;20374;-71
2023/03/01 03:53:36;;;;;;;20.67;18.57;;;-4.30;99.90;;;;;;2615449;31;20911;-70
2023/03/01 03:59:23;;;;;;;26.67;18.73;;;-4.30;99.90;;;;;;2614649;54;20134;-70
2023/03/01 04:05:14;;;;;;;20.60;18.03;;;-4.40;99.90;;;;;;2614794;54;20122;-70
2023/03/01 04:17:11;;;;;;;20.70;18.57;;;-4.40;99.90;;;;;;2614568;54;20429;-71
2023/03/01 04:23:08;;;;;;;22.23;19.93;;;-4.70;99.90;;;;;;2614782;54;20146;-71
2023/03/01 04:28:55;;;;;;;24.47;19.43;;;-4.70;99.90;;;;;;2612995;54;20507;-71
2023/03/01 04:34:42;;;;;;;20.20;18.10;;;-4.60;99.90;;;;;;2613122;54;20355;-71
2023/03/01 04:40:29;;;;;;;20.27;18.13;;;-4.60;99.90;;;;;;2613291;54;20689;-70
2023/03/01 04:43:50;;;;;;;21.60;19.40;;;-4.60;99.90;;;;;;2613372;54;20387;-70
2023/03/01 04:49:37;;;;;;;23.23;20.73;;;-4.70;99.90;;;;;;2613238;54;20365;-72
2023/03/01 04:55:28;;;;;;;23.77;19.17;;;-4.80;99.90;;;;;;2612969;54;20122;-71
2023/03/01 05:01:19;;;;;;;21.43;19.20;;;-4.90;99.90;;;;;;2614441;54;20350;-71
2023/03/01 05:07:07;;;;;;;23.60;18.73;;;-4.70;99.90;;;;;;2615114;39;20721;-71
2023/03/01 05:12:57;;;;;;;19.17;17.30;;;-4.60;99.90;;;;;;2614541;54;20628;-71
2023/03/01 05:22:06;;;;;;;23.87;19.07;;;-4.20;99.90;;;;;;2614460;54;20366;-71
2023/03/01 05:27:54;;;;;;;23.20;19.87;;;-4.20;99.90;;;;;;2614281;54;20176;-71
2023/03/01 05:33:41;;;;;;;28.00;20.30;;;-4.10;99.90;;;;;;2614305;54;21313;-72
2023/03/01 05:39:29;;;;;;;22.40;20.10;;;-4.10;99.90;;;;;;2614189;54;20153;-71
2023/03/01 05:45:18;;;;;;;22.37;19.10;;;-4.10;99.90;;;;;;2614593;54;20880;-71
2023/03/01 05:51:06;;;;;;;22.73;19.27;;;-3.80;99.90;;;;;;2614683;39;20737;-71
2023/03/01 05:56:53;;;;;;;19.43;17.27;;;-4.00;99.90;;;;;;2614328;54;20354;-71
2023/03/01 06:02:41;;;;;;;25.83;20.60;;;-3.90;99.90;;;;;;2614469;54;20142;-71
2023/03/01 06:08:29;;;;;;;27.17;20.93;;;-3.80;99.90;;;;;;2614214;54;20207;-71
2023/03/01 06:14:16;;;;;;;21.20;18.40;;;-3.80;99.90;;;;;;2614167;54;20118;-71
2023/03/01 06:17:37;;;;;;;28.40;21.53;;;-3.70;99.90;;;;;;2614934;54;20902;-71
2023/03/01 06:20:04;;;;;;;25.20;19.33;;;-3.50;99.90;;;;;;2614927;54;20142;-71
2023/03/01 06:25:52;;;;;;;23.93;18.77;;;-3.60;99.90;;;;;;2614969;54;20972;-71
2023/03/01 06:31:39;;;;;;;23.50;21.07;;;-3.80;99.90;;;;;;2614979;54;20342;-71
2023/03/01 06:37:27;;;;;;;22.23;20.13;;;-3.70;99.90;;;;;;2614903;54;20151;-72
2023/03/01 06:43:15;;;;;;;25.43;21.70;;;-3.70;99.90;;;;;;2615053;54;20149;-71
2023/03/01 06:49:07;;;;;;;25.90;20.50;;;-3.70;99.90;;;;;;2614817;54;20227;-71
2023/03/01 06:54:55;;;;;;;26.47;21.53;;;-3.60;99.90;;;;;;2614573;54;20419;-71
2023/03/01 07:00:43;;;;;;;26.47;20.60;;;-3.40;99.90;;;;;;2614759;54;20111;-71
2023/03/01 07:06:30;;;;;;;26.03;22.23;;;-3.30;99.90;;;;;;2614840;39;20790;-71
2023/03/01 07:12:18;;;;;;;24.63;21.93;;;-2.80;99.90;;;;;;2615185;54;20146;-71
2023/03/01 07:22:09;;;;;;;27.57;22.70;;;-2.10;99.90;;;;;;2614434;54;20378;-71
2023/03/01 07:27:56;;;;;;;35.80;25.50;;;0.70;70.10;;;;;;2614216;54;21002;-71
2023/03/01 07:33:44;;;;;;;36.43;25.37;;;1.70;30.20;;;;;;2614809;39;20522;-71
2023/03/01 07:39:31;;;;;;;28.27;25.37;;;2.50;20.60;;;;;;2614979;54;20263;-70
2023/03/01 07:45:19;;;;;;;26.23;24.03;;;2.60;15.40;;;;;;2614632;54;20130;-71
2023/03/01 07:51:07;;;;;;;25.93;23.13;;;3.20;14.20;;;;;;2614605;54;20142;-70
2023/03/01 07:56:56;;;;;;;28.50;25.70;;;3.10;10.30;;;;;;2614716;54;20391;-70
2023/03/01 08:02:45;;;;;;;26.67;24.63;;;4.30;5.30;;;;;;2614911;54;20916;-71
2023/03/01 08:08:33;;;;;;;29.63;27.03;;;4.60;3.40;;;;;;2614553;54;20958;-70
2023/03/01 08:14:21;;;;;;;27.20;24.63;;;4.50;1.00;;;;;;2614780;54;20371;-70
2023/03/01 08:20:19;;;;;;;27.00;24.40;;;5.90;1.00;;;;;;2612864;54;20147;-70
2023/03/01 08:32:51;;;;;;;24.70;23.00;;;6.90;1.00;;;;;;2613241;54;20456;-70
2023/03/01 08:38:38;;;;;;;26.10;23.93;;;7.20;1.00;;;;;;2612829;54;20403;-70
2023/03/01 08:44:25;;;;;;;25.17;22.93;;;7.30;1.00;;;;;;2612728;54;20122;-70
2023/03/01 08:50:12;;;;;;;24.50;22.73;;;8.10;1.00;;;;;;2613082;54;20231;-71
2023/03/01 08:56:02;;;;;;;23.93;22.13;;;8.20;1.00;;;;;;2613061;54;20197;-70
2023/03/01 09:01:49;;;;;;;23.80;21.87;;;8.60;1.00;;;;;;2612963;54;20391;-70
2023/03/01 09:07:36;;;;;;;23.27;21.67;;;7.90;1.00;;;;;;2614287;54;20641;-69
2023/03/01 09:13:24;;;;;;;23.20;21.60;;;9.10;1.00;;;;;;2614274;54;20119;-70
2023/03/01 09:22:34;;;;;;;23.60;22.00;;;8.60;1.00;;;;;;2614228;54;20982;-69
2023/03/01 09:25:38;;;;;;;23.03;21.17;;;8.50;1.00;;;;;;2614887;31;20879;-69
2023/03/01 09:28:03;;;;;;;21.90;19.97;;;9.30;1.00;;;;;;2614106;54;20450;-69
2023/03/01 09:33:53;;;;;;;22.20;20.50;;;8.80;1.00;;;;;;2614070;54;20130;-70
2023/03/01 09:39:40;;;;;;;22.20;20.77;;;10.20;1.00;;;;;;2614739;39;20891;-69
2023/03/01 09:45:34;;;;;;;21.23;19.93;;;9.90;1.00;;;;;;2614404;39;20514;-69
2023/03/01 09:58:31;;;;;;;21.53;20.07;;;8.60;1.00;;;;;;2613713;54;20400;-70
2023/03/01 10:04:21;;;;;;;21.77;20.30;;;9.50;1.00;;;;;;2613504;54;20420;-69
2023/03/01 10:23:03;;;;;;;20.90;19.70;;;10.60;1.00;;;;;;2613554;54;20446;-69
2023/03/01 10:25:38;;;;;;;20.70;19.50;;;10.80;1.00;;;;;;2613192;54;20383;-68
2023/03/01 10:34:48;;;;;;;20.30;19.00;;;10.90;1.00;;;;;;2614865;54;20391;-69
2023/03/01 10:47:01;;;;;;;21.87;20.27;;;12.10;1.00;;;;;;2614993;46;20419;-69
2023/03/01 10:59:38;;;;;;;20.17;18.87;;;10.50;1.00;;;;;;2613357;54;20410;-69
2023/03/01 11:05:28;;;;;;;20.73;19.43;;;12.50;1.00;;;;;;2613248;54;21474;-70
2023/03/01 11:11:21;;;;;;;19.13;17.93;;;11.00;1.00;;;;;;2613722;54;20950;-70
2023/03/01 11:17:15;;;;;;;20.83;19.40;;;11.20;1.00;;;;;;2613128;54;20469;-70
2023/03/01 11:26:23;;;;;;;20.67;19.07;;;12.50;1.00;;;;;;2613131;54;20412;-69
2023/03/01 11:32:13;;;;;;;19.00;17.90;;;12.50;1.00;;;;;;2613627;54;20130;-70
2023/03/01 11:44:36;;;;;;;19.80;18.10;;;11.80;1.00;;;;;;2614605;54;20475;-69
2023/03/01 11:56:53;;;;;;;19.80;18.60;;;12.90;1.00;;;;;;2614624;54;20391;-69
2023/03/01 12:09:50;;;;;;;21.27;19.83;;;12.10;1.00;;;;;;2614337;54;20447;-69
2023/03/01 12:15:55;;;;;;;20.90;19.60;;;13.00;1.00;;;;;;2614472;54;20423;-70
2023/03/01 12:28:08;;;;;;;22.63;21.10;;;14.30;1.00;;;;;;2614706;39;20635;-69
2023/03/01 12:40:52;;;;;;;22.40;20.50;;;12.20;1.00;;;;;;2614538;54;20408;-69
2023/03/01 12:53:22;;;;;;;20.57;19.30;;;13.10;1.00;;;;;;2614174;54;20359;-70
2023/03/01 13:16:36;;;;;;;23.03;21.60;;;13.90;1.00;;;;;;2612880;54;20407;-69
2023/03/01 13:26:24;;;;;;;20.93;19.63;;;13.60;1.00;;;;;;2613069;54;20375;-69
2023/03/01 13:32:23;;;;;;;20.87;19.43;;;13.40;1.00;;;;;;2613672;54;20412;-69
2023/03/01 13:38:37;;;;;;;21.77;20.17;;;12.80;1.00;;;;;;2613490;54;20408;-69
2023/03/01 13:44:38;;;;;;;19.70;18.40;;;12.40;1.00;;;;;;2613952;39;20737;-69
2023/03/01 13:50:32;;;;;;;19.43;18.13;;;12.30;1.00;;;;;;2614966;54;20363;-68
2023/03/01 13:56:29;;;;;;;21.60;19.80;;;12.30;1.00;;;;;;2614855;54;20375;-68
2023/03/01 14:02:16;;;;;;;21.60;20.20;;;11.80;1.00;;;;;;2615041;54;20478;-69
2023/03/01 14:20:55;;;;;;;20.93;19.53;;;12.60;1.00;;;;;;2614590;54;20491;-69
2023/03/01 14:26:42;;;;;;;22.40;20.70;;;13.60;1.00;;;;;;2614050;39;20583;-69
2023/03/01 14:32:32;;;;;;;22.23;20.60;;;14.00;1.00;;;;;;2609645;54;20134;-69
2023/03/01 14:44:55;;;;;;;22.87;21.27;;;13.30;1.00;;;;;;2612891;54;20376;-69
2023/03/01 14:50:45;;;;;;;21.87;20.27;;;13.00;1.00;;;;;;2612130;54;20399;-69
2023/03/01 15:09:26;;;;;;;22.80;21.20;;;12.70;1.00;;;;;;2605866;54;20398;-70
2023/03/01 15:21:49;;;;;;;21.57;20.07;;;12.10;1.00;;;;;;2610170;54;20399;-69
2023/03/01 15:24:53;;;;;;;23.63;22.00;;;12.00;1.00;;;;;;2608020;54;20399;-70
2023/03/01 15:43:55;;;;;;;22.50;21.07;;;10.30;1.00;;;;;;2609837;54;20391;-69
2023/03/01 15:49:43;;;;;;;23.50;21.70;;;9.30;1.00;;;;;;2611633;54;20419;-70
2023/03/01 15:55:33;;;;;;;22.93;21.37;;;9.80;1.00;;;;;;2611720;54;20394;-69
2023/03/01 16:01:20;;;;;;;22.13;20.20;;;10.70;1.00;;;;;;2611022;54;20423;-69
2023/03/01 16:07:09;;;;;;;21.20;19.80;;;10.60;1.00;;;;;;2611358;54;20126;-70
2023/03/01 16:12:57;;;;;;;21.83;20.43;;;10.20;1.00;;;;;;2612874;54;20399;-68
2023/03/01 16:18:48;;;;;;;20.07;18.70;;;10.40;1.00;;;;;;2611361;54;20430;-68
2023/03/01 16:24:35;;;;;;;18.60;17.17;;;9.90;1.00;;;;;;2611884;54;20363;-69
2023/03/01 16:30:23;;;;;;;20.33;18.80;;;9.60;1.00;;;;;;2609569;54;20161;-69
2023/03/01 16:36:12;;;;;;;17.93;16.77;;;9.00;1.00;;;;;;2611078;54;20165;-69
2023/03/01 16:42:00;;;;;;;20.50;19.07;;;8.60;1.00;;;;;;2608135;54;20382;-69
2023/03/01 16:47:48;;;;;;;20.33;18.93;;;7.60;1.00;;;;;;2609583;54;20383;-69
2023/03/01 16:53:37;;;;;;;22.40;20.67;;;6.50;1.00;;;;;;2610901;54;20166;-69
2023/03/01 16:59:25;;;;;;;20.47;19.17;;;6.20;1.00;;;;;;2611574;54;20940;-69
2023/03/01 17:05:12;;;;;;;20.17;18.77;;;6.00;1.00;;;;;;2613152;54;20130;-68
2023/03/01 17:11:08;;;;;;;22.50;20.80;;;5.70;1.00;;;;;;2612035;54;20206;-69
2023/03/01 17:16:56;;;;;;;23.13;19.90;;;5.40;1.00;;;;;;2611905;39;20478;-69
2023/03/01 17:22:43;;;;;;;23.17;21.30;;;5.10;1.00;;;;;;2612812;54;20150;-69
2023/03/01 17:31:55;;;;;;;24.20;22.40;;;4.90;1.00;;;;;;2611173;54;20454;-69
2023/03/01 17:37:45;;;;;;;23.27;21.20;;;4.60;1.00;;;;;;2611874;54;20395;-68
2023/03/01 17:43:35;;;;;;;21.33;19.60;;;4.50;1.00;;;;;;2606955;54;21064;-69
2023/03/01 17:49:23;;;;;;;21.20;19.57;;;4.50;1.00;;;;;;2610731;54;21011;-69
2023/03/01 17:55:11;;;;;;;22.87;21.07;;;4.40;1.00;;;;;;2612733;54;20158;-70
2023/03/01 18:01:16;;;;;;;23.47;21.43;;;4.30;1.00;;;;;;2611445;54;20138;-69
2023/03/01 18:07:03;;;;;;;23.50;21.70;;;4.20;1.00;;;;;;2609700;39;20849;-69
2023/03/01 18:12:51;;;;;;;23.37;21.37;;;3.90;1.00;;;;;;2612106;54;20142;-69
2023/03/01 18:18:40;;;;;;;22.67;20.83;;;3.80;1.00;;;;;;2611158;54;20952;-69
2023/03/01 18:24:27;;;;;;;22.60;20.80;;;3.70;1.00;;;;;;2612850;54;20375;-69
2023/03/01 18:27:23;;;;;;;23.00;21.20;;;3.60;1.00;;;;;;2612364;39;20522;-69
2023/03/01 18:29:49;;;;;;;24.13;22.20;;;3.60;1.00;;;;;;2613774;54;20258;-69
2023/03/01 18:35:38;;;;;;;24.43;22.33;;;3.50;1.00;;;;;;2610324;54;20250;-70
2023/03/01 18:41:26;;;;;;;23.87;21.93;;;3.20;1.00;;;;;;2612333;54;20392;-70
2023/03/01 18:47:15;;;;;;;26.93;24.20;;;3.20;1.00;;;;;;2612115;39;20756;-69
2023/03/01 18:53:02;;;;;;;25.63;23.63;;;3.10;1.00;;;;;;2613107;54;20339;-70
2023/03/01 18:58:50;;;;;;;25.00;22.67;;;3.10;1.00;;;;;;2611889;54;20147;-69
2023/03/01 19:04:38;;;;;;;24.87;22.67;;;2.90;1.00;;;;;;2612065;39;20716;-69
2023/03/01 19:10:27;;;;;;;25.53;23.00;;;2.80;1.00;;;;;;2614364;54;20637;-69
2023/03/01 19:16:17;;;;;;;23.10;21.00;;;2.70;1.00;;;;;;2612623;54;20487;-69
2023/03/01 19:22:06;;;;;;;23.40;21.90;;;2.80;1.00;;;;;;2612022;39;20771;-69
2023/03/01 19:31:53;;;;;;;24.57;22.57;;;2.70;1.00;;;;;;2613417;54;20928;-69
2023/03/01 19:37:41;;;;;;;23.20;21.10;;;2.90;1.00;;;;;;2613328;54;20376;-70
2023/03/01 19:43:29;;;;;;;22.80;20.97;;;2.80;1.00;;;;;;2613661;39;20469;-69
2023/03/01 19:49:16;;;;;;;23.70;21.37;;;2.60;1.00;;;;;;2613872;54;20127;-70
2023/03/01 19:55:04;;;;;;;22.57;20.87;;;2.70;1.00;;;;;;2613787;54;20122;-68
2023/03/01 20:00:57;;;;;;;22.87;20.67;;;2.60;1.00;;;;;;2613977;54;20367;-70
2023/03/01 20:06:45;;;;;;;23.67;21.40;;;2.60;1.00;;;;;;2611589;54;20407;-70
2023/03/01 20:12:36;;;;;;;21.20;19.60;;;2.60;1.00;;;;;;2612889;54;20506;-70
2023/03/01 20:18:25;;;;;;;23.40;21.60;;;2.50;1.00;;;;;;2613792;39;20809;-69
2023/03/01 20:24:13;;;;;;;23.07;21.10;;;2.40;1.00;;;;;;2611485;54;20383;-69
2023/03/01 20:27:23;;;;;;;22.23;20.53;;;2.40;1.00;;;;;;2612445;54;20390;-69
2023/03/01 20:29:49;;;;;;;25.00;22.30;;;2.40;1.00;;;;;;2611175;39;20305;-70
2023/03/01 20:35:40;;;;;;;24.43;22.37;;;2.30;1.00;;;;;;2610133;54;20170;-70
2023/03/01 20:41:28;;;;;;;24.67;22.30;;;2.30;1.00;;;;;;2611432;54;22286;-70
2023/03/01 20:47:16;;;;;;;24.37;22.53;;;2.20;1.00;;;;;;2613304;54;20150;-70
2023/03/01 20:53:03;;;;;;;24.70;22.70;;;2.20;1.00;;;;;;2612793;54;20238;-70
2023/03/01 20:58:53;;;;;;;22.90;21.20;;;2.10;1.00;;;;;;2610889;54;20652;-69
2023/03/01 21:04:41;;;;;;;23.43;21.60;;;2.10;2.00;;;;;;2612905;54;20375;-71
2023/03/01 21:10:31;;;;;;;23.07;21.37;;;2.10;1.70;;;;;;2609746;54;20669;-69
2023/03/01 21:16:19;;;;;;;23.27;21.00;;;2.00;3.50;;;;;;2612599;54;22071;-71
2023/03/01 21:22:07;;;;;;;24.43;21.70;;;2.00;3.30;;;;;;2611910;54;20880;-69
2023/03/01 21:25:10;;;;;;;24.33;21.87;;;2.00;3.00;;;;;;2612668;54;20391;-69
2023/03/01 21:31:54;;;;;;;24.00;21.93;;;1.90;4.60;;;;;;2612403;54;20773;-70
2023/03/01 21:37:41;;;;;;;23.73;21.63;;;1.70;6.50;;;;;;2613109;54;20403;-69
2023/03/01 21:43:29;;;;;;;22.90;21.07;;;1.70;7.30;;;;;;2614310;54;20146;-70
2023/03/01 21:49:17;;;;;;;22.13;20.20;;;1.60;8.80;;;;;;2607738;54;21999;-69
2023/03/01 21:55:06;;;;;;;22.40;20.50;;;1.70;8.30;;;;;;2608496;39;20816;-70
2023/03/01 22:00:55;;;;;;;22.73;21.03;;;1.80;6.00;;;;;;2608749;54;20362;-69
2023/03/01 22:06:45;;;;;;;22.23;20.33;;;1.80;6.40;;;;;;2611738;39;20754;-70
2023/03/01 22:12:33;;;;;;;22.00;20.33;;;1.50;8.10;;;;;;2610111;39;20691;-69
2023/03/01 22:18:21;;;;;;;22.37;20.03;;;1.50;8.60;;;;;;2608921;54;20178;-69
2023/03/01 22:24:11;;;;;;;20.73;19.07;;;1.40;10.90;;;;;;2609502;54;20126;-69
2023/03/01 22:27:23;;;;;;;20.97;19.57;;;1.30;12.40;;;;;;2608292;39;20817;-69
2023/03/01 22:29:48;;;;;;;21.93;20.20;;;1.50;10.60;;;;;;2607422;54;20422;-69
2023/03/01 22:35:40;;;;;;;21.67;20.17;;;1.50;9.10;;;;;;2611781;54;20125;-69
2023/03/01 22:41:31;;;;;;;22.83;20.73;;;1.50;9.70;;;;;;2613226;54;20350;-69
2023/03/01 22:47:19;;;;;;;21.27;19.70;;;1.60;7.00;;;;;;2614019;39;20777;-68
2023/03/01 22:53:06;;;;;;;20.03;18.73;;;1.80;4.50;;;;;;2613245;54;20653;-68
2023/03/01 22:58:55;;;;;;;19.10;17.80;;;1.80;2.80;;;;;;2612526;54;20131;-69
2023/03/01 23:04:46;;;;;;;21.03;19.30;;;1.80;3.30;;;;;;2613812;39;20719;-68
2023/03/01 23:10:33;;;;;;;20.20;18.60;;;1.60;3.00;;;;;;2613398;54;20495;-68
2023/03/01 23:16:25;;;;;;;21.50;19.63;;;1.30;6.40;;;;;;2613506;54;20158;-68
2023/03/01 23:22:12;;;;;;;20.70;18.90;;;1.30;7.60;;;;;;2613463;54;20928;-69
2023/03/01 23:31:53;;;;;;;18.27;17.00;;;1.40;4.30;;;;;;2613954;54;20379;-69
2023/03/01 23:37:41;;;;;;;19.73;18.23;;;1.20;7.90;;;;;;2614091;54;20832;-69
2023/03/01 23:43:29;;;;;;;19.73;18.27;;;1.00;11.40;;;;;;2612048;54;20135;-69
2023/03/01 23:49:20;;;;;;;21.10;19.33;;;0.60;18.30;;;;;;2613672;54;20239;-69
2023/03/01 23:55:10;;;;;;;20.80;19.20;;;0.10;27.60;;;;;;2613878;54;20476;-70
